createdAt,value
2019-03-19T00:00:41.055Z,93.40
2019-03-19T00:02:43.836Z,93.30
2019-03-19T00:04:46.676Z,93.40
2019-03-19T00:06:49.430Z,93.60
2019-03-19T00:08:52.215Z,93.30
2019-03-19T00:10:55.019Z,93.60
2019-03-19T00:12:57.833Z,93.80
2019-03-19T00:15:00.647Z,93.50
2019-03-19T00:17:03.481Z,93.90
2019-03-19T00:19:06.268Z,93.80
2019-03-19T00:21:09.046Z,93.80
2019-03-19T00:23:11.858Z,93.20
2019-03-19T00:25:14.714Z,93.60
2019-03-19T00:27:17.523Z,93.90
2019-03-19T00:29:20.326Z,93.70
2019-03-19T00:31:23.109Z,93.50
2019-03-19T00:33:25.907Z,93.50
2019-03-19T00:35:28.691Z,93.60
2019-03-19T00:37:31.470Z,93.70
2019-03-19T00:39:34.327Z,93.90
2019-03-19T00:41:37.118Z,93.50
2019-03-19T00:43:39.888Z,93.40
2019-03-19T00:45:42.681Z,93.40
2019-03-19T00:47:45.458Z,93.60
2019-03-19T00:49:48.255Z,93.50
2019-03-19T00:51:51.023Z,93.50
2019-03-19T00:53:53.803Z,93.60
2019-03-19T00:55:56.609Z,93.60
2019-03-19T00:57:59.458Z,93.50
2019-03-19T01:00:02.556Z,93.70
2019-03-19T01:02:05.354Z,93.80
2019-03-19T01:04:08.214Z,93.70
2019-03-19T01:06:10.998Z,93.80
2019-03-19T01:08:13.877Z,93.80
2019-03-19T01:10:17.666Z,94.00
2019-03-19T01:12:20.719Z,94.20
2019-03-19T01:14:23.492Z,93.80
2019-03-19T01:16:26.302Z,94.20
2019-03-19T01:18:29.076Z,93.90
2019-03-19T01:20:31.881Z,94.00
2019-03-19T01:22:35.150Z,94.30
2019-03-19T01:24:37.967Z,94.10
2019-03-19T01:26:40.771Z,93.70
2019-03-19T01:28:43.628Z,93.80
2019-03-19T01:30:46.488Z,93.90
2019-03-19T01:32:49.210Z,93.70
2019-03-19T01:34:51.990Z,93.90
2019-03-19T01:36:54.733Z,93.80
2019-03-19T01:38:57.518Z,93.90
2019-03-19T01:41:00.322Z,93.90
2019-03-19T01:43:03.179Z,93.90
2019-03-19T01:45:07.576Z,93.80
2019-03-19T01:47:10.334Z,94.00
2019-03-19T01:49:13.119Z,94.20
2019-03-19T01:51:15.922Z,94.00
2019-03-19T01:53:18.706Z,93.80
2019-03-19T01:55:21.479Z,93.80
2019-03-19T01:57:24.294Z,93.70
2019-03-19T01:59:27.066Z,94.10
2019-03-19T02:01:29.880Z,93.80
2019-03-19T02:03:32.649Z,93.80
2019-03-19T02:05:35.426Z,93.90
2019-03-19T02:07:38.205Z,94.00
2019-03-19T02:09:40.991Z,93.70
2019-03-19T02:11:43.804Z,93.90
2019-03-19T02:13:46.591Z,94.00
2019-03-19T02:15:49.363Z,94.20
2019-03-19T02:17:52.222Z,93.90
2019-03-19T02:19:54.996Z,93.90
2019-03-19T02:21:57.808Z,93.90
2019-03-19T02:24:00.615Z,94.30
2019-03-19T02:26:03.389Z,94.00
2019-03-19T02:28:06.173Z,94.10
2019-03-19T02:30:10.523Z,94.10
2019-03-19T02:32:13.311Z,94.00
2019-03-19T02:34:16.076Z,94.00
2019-03-19T02:36:18.884Z,94.10
2019-03-19T02:38:21.669Z,94.00
2019-03-19T02:40:24.449Z,94.10
2019-03-19T02:42:27.226Z,94.10
2019-03-19T02:44:30.035Z,94.10
2019-03-19T02:46:32.881Z,94.00
2019-03-19T02:48:35.700Z,94.10
2019-03-19T02:50:38.557Z,94.10
2019-03-19T02:52:41.343Z,94.10
2019-03-19T02:54:44.130Z,94.10
2019-03-19T02:56:46.940Z,94.10
2019-03-19T02:58:49.734Z,94.10
2019-03-19T03:00:52.532Z,94.00
2019-03-19T03:02:55.306Z,94.20
2019-03-19T03:04:58.136Z,94.10
2019-03-19T03:07:00.922Z,94.10
2019-03-19T03:09:05.255Z,94.10
2019-03-19T03:11:08.059Z,94.10
2019-03-19T03:13:10.899Z,94.20
2019-03-19T03:15:14.054Z,94.30
2019-03-19T03:17:16.905Z,94.30
2019-03-19T03:19:19.779Z,94.50
2019-03-19T03:21:22.567Z,94.40
2019-03-19T03:23:25.411Z,94.50
2019-03-19T03:25:28.184Z,94.40
2019-03-19T03:27:30.974Z,94.60
2019-03-19T03:29:33.810Z,95.20
2019-03-19T03:31:36.593Z,94.70
2019-03-19T03:33:39.385Z,94.80
2019-03-19T03:35:42.244Z,94.80
2019-03-19T03:37:45.091Z,94.70
2019-03-19T03:39:47.933Z,94.60
2019-03-19T03:41:50.712Z,94.60
2019-03-19T03:43:53.493Z,94.80
2019-03-19T03:45:56.307Z,94.90
2019-03-19T03:47:59.199Z,94.90
2019-03-19T03:50:01.999Z,95.00
2019-03-19T03:52:05.039Z,94.60
2019-03-19T03:54:07.729Z,94.70
2019-03-19T03:56:10.532Z,94.70
2019-03-19T03:58:13.356Z,95.00
2019-03-19T04:00:17.672Z,94.60
2019-03-19T04:02:20.434Z,94.60
2019-03-19T04:04:23.251Z,94.70
2019-03-19T04:06:26.037Z,94.70
2019-03-19T04:08:28.874Z,94.90
2019-03-19T04:10:31.670Z,95.10
2019-03-19T04:12:34.546Z,95.30
2019-03-19T04:14:37.350Z,95.40
2019-03-19T04:16:40.131Z,95.00
2019-03-19T04:18:42.994Z,95.20
2019-03-19T04:20:45.831Z,95.40
2019-03-19T04:22:48.582Z,95.20
2019-03-19T04:24:51.385Z,95.20
2019-03-19T04:26:54.236Z,95.20
2019-03-19T04:28:57.081Z,95.30
2019-03-19T04:30:59.934Z,95.60
2019-03-19T04:33:02.867Z,95.70
2019-03-19T04:35:06.252Z,95.70
2019-03-19T04:37:09.039Z,95.90
2019-03-19T04:39:11.839Z,95.80
2019-03-19T04:41:14.642Z,95.80
2019-03-19T04:43:17.432Z,95.60
2019-03-19T04:45:20.217Z,95.60
2019-03-19T04:47:23.020Z,95.50
2019-03-19T04:49:25.798Z,95.40
2019-03-19T04:51:28.606Z,95.30
2019-03-19T04:53:31.417Z,95.30
2019-03-19T04:55:34.246Z,95.50
2019-03-19T04:57:36.989Z,95.30
2019-03-19T04:59:39.827Z,95.30
2019-03-19T05:01:42.654Z,95.30
2019-03-19T05:03:45.451Z,95.60
2019-03-19T05:05:48.562Z,95.50
2019-03-19T05:07:51.343Z,95.90
2019-03-19T05:09:56.251Z,95.80
2019-03-19T05:11:59.315Z,95.90
2019-03-19T05:14:02.182Z,95.80
2019-03-19T05:16:04.962Z,95.90
2019-03-19T05:18:07.738Z,95.90
2019-03-19T05:20:13.880Z,96.10
2019-03-19T05:22:16.647Z,96.00
2019-03-19T05:24:19.869Z,96.10
2019-03-19T05:26:22.636Z,96.10
2019-03-19T05:28:25.448Z,96.60
2019-03-19T05:30:28.269Z,96.30
2019-03-19T05:32:31.057Z,96.30
2019-03-19T05:34:33.838Z,96.40
2019-03-19T05:36:36.645Z,96.20
2019-03-19T05:38:39.441Z,96.30
2019-03-19T05:40:42.246Z,96.00
2019-03-19T05:42:45.131Z,96.10
2019-03-19T05:44:47.980Z,95.80
2019-03-19T05:46:50.764Z,95.70
2019-03-19T05:48:53.585Z,95.70
2019-03-19T05:50:56.348Z,95.60
2019-03-19T05:52:59.175Z,95.50
2019-03-19T05:55:01.982Z,94.90
2019-03-19T05:57:04.724Z,95.50
2019-03-19T05:59:07.526Z,95.40
2019-03-19T06:01:10.317Z,95.40
2019-03-19T06:03:13.110Z,95.40
2019-03-19T06:05:15.893Z,95.10
2019-03-19T06:07:18.673Z,95.00
2019-03-19T06:09:21.474Z,95.10
2019-03-19T06:11:24.243Z,94.80
2019-03-19T06:13:27.056Z,95.00
2019-03-19T06:15:29.814Z,94.90
2019-03-19T06:17:35.584Z,94.60
2019-03-19T06:19:38.407Z,94.60
2019-03-19T06:21:41.254Z,94.50
2019-03-19T06:23:44.043Z,94.40
2019-03-19T06:25:46.820Z,94.60
2019-03-19T06:27:59.956Z,94.40
2019-03-19T06:29:54.401Z,94.60
2019-03-19T06:31:57.814Z,94.10
2019-03-19T06:34:00.623Z,93.90
2019-03-19T06:36:03.403Z,94.00
2019-03-19T06:38:06.214Z,94.00
2019-03-19T06:40:10.397Z,94.00
2019-03-19T06:42:13.170Z,93.80
2019-03-19T06:44:15.987Z,93.80
2019-03-19T06:46:18.774Z,93.60
2019-03-19T06:48:21.555Z,93.50
2019-03-19T06:50:24.363Z,93.80
2019-03-19T06:52:27.140Z,93.70
2019-03-19T06:54:29.944Z,94.10
2019-03-19T06:56:32.716Z,94.20
2019-03-19T06:58:35.499Z,94.10
2019-03-19T07:00:38.389Z,93.90
2019-03-19T07:02:41.156Z,94.20
2019-03-19T07:04:43.972Z,94.40
2019-03-19T07:06:46.747Z,94.00
2019-03-19T07:08:49.563Z,94.10
2019-03-19T07:10:52.367Z,94.30
2019-03-19T07:12:55.151Z,94.00
2019-03-19T07:14:58.005Z,94.20
2019-03-19T07:17:00.805Z,93.80
2019-03-19T07:19:03.636Z,94.00
2019-03-19T07:21:06.409Z,93.00
2019-03-19T07:23:09.185Z,92.30
2019-03-19T07:25:12.052Z,92.40
2019-03-19T07:27:14.832Z,91.00
2019-03-19T07:29:17.648Z,91.10
2019-03-19T07:31:30.459Z,90.90
2019-03-19T07:33:24.944Z,91.20
2019-03-19T07:35:27.757Z,90.50
2019-03-19T07:37:30.544Z,88.90
2019-03-19T07:39:33.319Z,88.40
2019-03-19T07:41:36.115Z,89.60
2019-03-19T07:43:38.917Z,87.60
2019-03-19T07:45:41.717Z,85.70
2019-03-19T07:47:44.564Z,83.40
2019-03-19T07:49:47.363Z,83.40
2019-03-19T07:51:50.151Z,84.20
2019-03-19T07:53:52.860Z,83.70
2019-03-19T07:55:55.675Z,83.50
2019-03-19T07:57:58.444Z,84.30
2019-03-19T08:00:01.228Z,81.90
2019-03-19T08:02:04.042Z,80.40
2019-03-19T08:04:06.819Z,74.90
2019-03-19T08:06:09.611Z,75.10
2019-03-19T08:08:12.408Z,74.00
2019-03-19T08:10:18.732Z,72.50
2019-03-19T08:12:21.520Z,73.80
2019-03-19T08:14:24.306Z,72.40
2019-03-19T08:16:27.842Z,73.40
2019-03-19T08:18:30.729Z,73.70
2019-03-19T08:20:33.493Z,75.50
2019-03-19T08:22:36.287Z,73.80
2019-03-19T08:24:39.098Z,71.80
2019-03-19T08:26:41.911Z,71.60
2019-03-19T08:28:54.911Z,72.50
2019-03-19T08:30:49.142Z,71.80
2019-03-19T08:32:51.938Z,68.10
2019-03-19T08:34:54.726Z,68.60
2019-03-19T08:36:57.518Z,69.90
2019-03-19T08:39:00.308Z,68.60
2019-03-19T08:41:03.075Z,70.00
2019-03-19T08:43:05.855Z,70.00
2019-03-19T08:45:10.245Z,69.40
2019-03-19T08:47:13.062Z,71.80
2019-03-19T08:49:15.956Z,71.60
2019-03-19T08:51:18.802Z,71.90
2019-03-19T08:53:21.587Z,69.80
2019-03-19T08:55:24.411Z,69.90
2019-03-19T08:57:27.190Z,70.10
2019-03-19T08:59:29.989Z,70.70
2019-03-19T09:01:32.796Z,70.40
2019-03-19T09:03:35.571Z,71.80
2019-03-19T09:05:38.351Z,71.70
2019-03-19T09:07:41.151Z,71.20
2019-03-19T09:09:43.940Z,72.20
2019-03-19T09:11:46.725Z,68.70
2019-03-19T09:13:49.527Z,68.80
2019-03-19T09:15:52.411Z,69.40
2019-03-19T09:17:55.184Z,67.50
2019-03-19T09:19:57.966Z,69.90
2019-03-19T09:22:00.786Z,69.70
2019-03-19T09:24:03.631Z,70.80
2019-03-19T09:26:06.422Z,70.80
2019-03-19T09:28:09.312Z,70.90
2019-03-19T09:30:19.599Z,71.20
2019-03-19T09:32:22.385Z,71.20
2019-03-19T09:34:25.198Z,72.70
2019-03-19T09:36:28.003Z,69.60
2019-03-19T09:38:30.811Z,69.80
2019-03-19T09:40:33.595Z,68.60
2019-03-19T09:42:36.448Z,69.40
2019-03-19T09:44:39.261Z,69.60
2019-03-19T09:46:42.055Z,69.30
2019-03-19T09:48:44.851Z,71.00
2019-03-19T09:50:47.641Z,73.60
2019-03-19T09:52:50.433Z,70.70
2019-03-19T09:54:53.296Z,70.00
2019-03-19T09:56:56.047Z,68.90
2019-03-19T09:58:58.811Z,70.20
2019-03-19T10:01:01.623Z,67.50
2019-03-19T10:03:04.471Z,68.90
2019-03-19T10:05:07.316Z,69.60
2019-03-19T10:07:10.143Z,69.30
2019-03-19T10:09:12.905Z,67.40
2019-03-19T10:11:15.696Z,66.10
2019-03-19T10:13:18.477Z,66.20
2019-03-19T10:15:21.459Z,61.60
2019-03-19T10:17:24.231Z,62.60
2019-03-19T10:19:27.013Z,64.30
2019-03-19T10:21:29.850Z,63.50
2019-03-19T10:23:32.619Z,62.50
2019-03-19T10:25:38.003Z,63.10
2019-03-19T10:27:40.500Z,65.40
2019-03-19T10:29:43.374Z,66.10
2019-03-19T10:31:46.224Z,67.50
2019-03-19T10:33:49.025Z,69.80
2019-03-19T10:35:51.786Z,67.10
2019-03-19T10:37:54.580Z,67.60
2019-03-19T10:39:57.383Z,67.80
2019-03-19T10:42:00.175Z,67.20
2019-03-19T10:44:03.038Z,67.10
2019-03-19T10:46:05.816Z,67.10
2019-03-19T10:48:08.686Z,67.10
2019-03-19T10:50:13.341Z,66.30
2019-03-19T10:52:16.121Z,67.40
2019-03-19T10:54:18.929Z,65.20
2019-03-19T10:56:21.733Z,65.10
2019-03-19T10:58:24.492Z,65.10
2019-03-19T11:00:27.351Z,65.40
2019-03-19T11:02:30.157Z,66.30
2019-03-19T11:04:32.935Z,67.90
2019-03-19T11:06:35.746Z,70.30
2019-03-19T11:08:38.515Z,70.90
2019-03-19T11:10:41.327Z,70.60
2019-03-19T11:12:44.287Z,69.50
2019-03-19T11:14:47.082Z,68.50
2019-03-19T11:16:49.901Z,70.00
2019-03-19T11:18:52.674Z,70.00
2019-03-19T11:20:55.470Z,69.10
2019-03-19T11:22:58.309Z,69.30
2019-03-19T11:25:01.122Z,68.50
2019-03-19T11:27:03.972Z,67.70
2019-03-19T11:29:06.789Z,68.70
2019-03-19T11:31:09.599Z,68.60
2019-03-19T11:33:12.380Z,66.90
2019-03-19T11:35:15.324Z,65.70
2019-03-19T11:37:18.111Z,65.10
2019-03-19T11:39:20.940Z,63.00
2019-03-19T11:41:23.722Z,65.10
2019-03-19T11:43:26.496Z,63.70
2019-03-19T11:45:29.342Z,65.30
2019-03-19T11:47:32.197Z,64.80
2019-03-19T11:49:34.989Z,65.10
2019-03-19T11:51:37.842Z,64.50
2019-03-19T11:53:40.619Z,65.30
2019-03-19T11:55:43.431Z,64.00
2019-03-19T11:57:46.279Z,64.00
2019-03-19T11:59:49.067Z,65.70
2019-03-19T12:01:51.875Z,63.70
2019-03-19T12:03:54.745Z,62.80
2019-03-19T12:05:57.610Z,63.60
2019-03-19T12:08:00.382Z,63.10
2019-03-19T12:10:04.354Z,65.00
2019-03-19T12:12:07.133Z,65.70
2019-03-19T12:14:09.909Z,64.50
2019-03-19T12:16:12.700Z,63.80
2019-03-19T12:18:15.466Z,65.20
2019-03-19T12:20:20.558Z,64.10
2019-03-19T12:22:22.764Z,62.30
2019-03-19T12:24:26.492Z,62.10
2019-03-19T12:26:29.302Z,61.10
2019-03-19T12:28:39.670Z,60.90
2019-03-19T12:30:36.492Z,61.00
2019-03-19T12:32:39.379Z,62.60
2019-03-19T12:34:42.535Z,58.50
2019-03-19T12:36:45.356Z,55.70
2019-03-19T12:38:48.132Z,54.90
2019-03-19T12:40:51.164Z,53.20
2019-03-19T12:42:54.145Z,57.20
2019-03-19T12:44:56.939Z,55.20
2019-03-19T12:46:59.730Z,56.60
2019-03-19T12:49:03.400Z,57.90
2019-03-19T12:51:06.193Z,59.00
2019-03-19T12:53:08.986Z,58.60
2019-03-19T12:55:11.944Z,58.60
2019-03-19T12:57:14.732Z,59.00
2019-03-19T12:59:20.538Z,58.30
2019-03-19T13:01:22.019Z,55.80
2019-03-19T13:03:24.911Z,56.10
2019-03-19T13:05:27.692Z,56.50
2019-03-19T13:07:30.492Z,54.60
2019-03-19T13:09:33.268Z,55.70
2019-03-19T13:11:36.226Z,54.10
2019-03-19T13:13:40.911Z,52.70
2019-03-19T13:15:43.463Z,53.30
2019-03-19T13:17:46.287Z,51.60
2019-03-19T13:19:49.072Z,52.30
2019-03-19T13:21:52.111Z,54.90
2019-03-19T13:23:55.359Z,53.00
2019-03-19T13:25:58.287Z,53.10
2019-03-19T13:28:02.962Z,52.60
2019-03-19T13:30:07.551Z,53.10
2019-03-19T13:32:10.348Z,54.00
2019-03-19T13:34:14.007Z,52.10
2019-03-19T13:36:16.810Z,52.70
2019-03-19T13:38:20.009Z,51.10
2019-03-19T13:40:22.936Z,50.70
2019-03-19T13:42:25.730Z,50.80
2019-03-19T13:44:28.547Z,51.80
2019-03-19T13:46:31.355Z,51.80
2019-03-19T13:48:34.179Z,50.50
2019-03-19T13:50:36.999Z,51.00
2019-03-19T13:52:39.784Z,50.40
2019-03-19T13:54:42.600Z,50.50
2019-03-19T13:56:45.382Z,50.90
2019-03-19T13:58:48.188Z,51.30
2019-03-19T14:00:55.587Z,50.90
2019-03-19T14:02:55.423Z,51.50
2019-03-19T14:04:58.201Z,49.50
2019-03-19T14:07:00.988Z,48.70
2019-03-19T14:09:05.340Z,49.00
2019-03-19T14:11:08.164Z,48.50
2019-03-19T14:13:10.967Z,48.20
2019-03-19T14:15:14.626Z,48.20
2019-03-19T14:17:17.338Z,48.00
2019-03-19T14:19:20.130Z,47.70
2019-03-19T14:21:22.911Z,49.30
2019-03-19T14:23:25.711Z,49.30
2019-03-19T14:25:28.557Z,52.10
2019-03-19T14:27:31.329Z,52.00
2019-03-19T14:29:34.143Z,50.50
2019-03-19T14:31:36.948Z,49.30
2019-03-19T14:33:39.729Z,50.70
2019-03-19T14:35:42.515Z,47.90
2019-03-19T14:37:45.376Z,48.50
2019-03-19T14:39:48.182Z,46.30
2019-03-19T14:41:50.972Z,48.30
2019-03-19T14:43:53.767Z,48.80
2019-03-19T14:45:56.608Z,51.60
2019-03-19T14:47:59.375Z,53.10
2019-03-19T14:50:02.101Z,53.50
2019-03-19T14:52:04.963Z,51.90
2019-03-19T14:54:07.743Z,52.00
2019-03-19T14:56:10.533Z,51.50
2019-03-19T14:58:13.402Z,52.40
2019-03-19T15:00:29.636Z,52.80
2019-03-19T15:02:32.419Z,52.30
2019-03-19T15:04:35.199Z,52.20
2019-03-19T15:06:38.076Z,52.60
2019-03-19T15:08:40.864Z,52.30
2019-03-19T15:10:46.563Z,51.70
2019-03-19T15:12:49.347Z,50.50
2019-03-19T15:14:52.158Z,47.90
2019-03-19T15:17:04.550Z,49.00
2019-03-19T15:18:59.384Z,47.70
2019-03-19T15:21:02.195Z,49.20
2019-03-19T15:23:05.115Z,47.90
2019-03-19T15:25:08.675Z,48.30
2019-03-19T15:27:11.458Z,48.80
2019-03-19T15:29:14.238Z,50.90
2019-03-19T15:31:17.044Z,53.10
2019-03-19T15:33:19.841Z,53.10
2019-03-19T15:35:22.703Z,54.00
2019-03-19T15:37:25.487Z,52.30
2019-03-19T15:39:28.295Z,52.00
2019-03-19T15:41:31.068Z,52.40
2019-03-19T15:43:33.920Z,54.50
2019-03-19T15:45:36.699Z,53.60
2019-03-19T15:47:39.491Z,53.90
2019-03-19T15:49:42.366Z,53.60
2019-03-19T15:51:45.137Z,52.70
2019-03-19T15:53:47.933Z,53.10
2019-03-19T15:55:50.693Z,54.40
2019-03-19T15:57:53.467Z,54.40
2019-03-19T15:59:56.320Z,56.10
2019-03-19T16:01:59.079Z,57.20
2019-03-19T16:04:01.881Z,58.50
2019-03-19T16:06:04.682Z,59.50
2019-03-19T16:08:07.467Z,59.50
2019-03-19T16:10:11.331Z,61.20
2019-03-19T16:12:14.147Z,62.10
2019-03-19T16:14:16.918Z,62.50
2019-03-19T16:16:19.701Z,63.40
2019-03-19T16:18:22.511Z,65.30
2019-03-19T16:20:25.385Z,65.40
2019-03-19T16:22:28.140Z,65.90
2019-03-19T16:24:30.952Z,66.00
2019-03-19T16:26:33.796Z,66.90
2019-03-19T16:28:36.575Z,67.70
2019-03-19T16:30:39.406Z,69.70
2019-03-19T16:32:42.334Z,70.00
2019-03-19T16:34:45.166Z,72.10
2019-03-19T16:36:48.017Z,73.20
2019-03-19T16:38:50.794Z,75.00
2019-03-19T16:40:53.588Z,74.50
2019-03-19T16:42:56.441Z,73.80
2019-03-19T16:44:59.248Z,75.60
2019-03-19T16:47:02.029Z,74.00
2019-03-19T16:49:04.865Z,74.60
2019-03-19T16:51:07.679Z,76.10
2019-03-19T16:53:10.455Z,76.10
2019-03-19T16:55:16.759Z,75.60
2019-03-19T16:57:19.564Z,76.20
2019-03-19T16:59:22.340Z,75.70
2019-03-19T17:01:25.171Z,76.40
2019-03-19T17:03:28.004Z,75.00
2019-03-19T17:05:30.802Z,75.40
2019-03-19T17:07:33.611Z,75.40
2019-03-19T17:09:36.390Z,75.90
2019-03-19T17:11:39.213Z,75.40
2019-03-19T17:13:42.063Z,75.10
2019-03-19T17:15:44.869Z,74.60
2019-03-19T17:17:47.677Z,75.10
2019-03-19T17:19:50.459Z,74.20
2019-03-19T17:21:53.260Z,74.30
2019-03-19T17:23:56.038Z,73.30
2019-03-19T17:25:58.821Z,74.10
2019-03-19T17:28:01.628Z,74.50
2019-03-19T17:30:11.927Z,73.90
2019-03-19T17:32:15.807Z,74.20
2019-03-19T17:34:18.660Z,75.30
2019-03-19T17:36:21.531Z,77.00
2019-03-19T17:38:24.328Z,79.00
2019-03-19T17:40:27.115Z,79.90
2019-03-19T17:42:29.898Z,80.30
2019-03-19T17:44:32.680Z,80.50
2019-03-19T17:46:35.557Z,80.90
2019-03-19T17:48:38.485Z,81.70
2019-03-19T17:50:42.805Z,81.40
2019-03-19T17:52:45.953Z,82.10
2019-03-19T17:54:48.745Z,81.70
2019-03-19T17:56:51.542Z,82.20
2019-03-19T17:58:54.380Z,82.70
2019-03-19T18:00:57.157Z,84.00
2019-03-19T18:02:59.952Z,84.00
2019-03-19T18:05:02.741Z,83.60
2019-03-19T18:07:05.521Z,84.10
2019-03-19T18:09:08.294Z,84.00
2019-03-19T18:11:11.107Z,85.30
2019-03-19T18:13:13.887Z,84.80
2019-03-19T18:15:17.371Z,84.50
2019-03-19T18:17:20.155Z,85.90
2019-03-19T18:19:23.102Z,86.90
2019-03-19T18:21:25.853Z,85.50
2019-03-19T18:23:29.602Z,86.60
2019-03-19T18:25:32.469Z,86.00
2019-03-19T18:27:35.345Z,87.20
2019-03-19T18:29:38.140Z,87.60
2019-03-19T18:31:40.941Z,87.90
2019-03-19T18:33:43.721Z,89.20
2019-03-19T18:35:46.503Z,87.90
2019-03-19T18:37:49.355Z,88.90
2019-03-19T18:39:52.165Z,88.00
2019-03-19T18:41:54.979Z,88.10
2019-03-19T18:43:57.954Z,88.70
2019-03-19T18:46:00.741Z,89.40
2019-03-19T18:48:03.598Z,89.80
2019-03-19T18:50:10.880Z,90.10
2019-03-19T18:52:16.173Z,90.00
2019-03-19T18:54:18.121Z,90.60
2019-03-19T18:56:20.999Z,90.40
2019-03-19T18:58:23.795Z,89.60
2019-03-19T19:00:26.656Z,90.20
2019-03-19T19:02:29.455Z,90.30
2019-03-19T19:04:32.369Z,90.20
2019-03-19T19:06:35.251Z,90.60
2019-03-19T19:08:38.068Z,90.60
2019-03-19T19:10:40.854Z,90.80
2019-03-19T19:12:43.750Z,91.20
2019-03-19T19:14:46.550Z,91.20
2019-03-19T19:16:49.328Z,91.20
2019-03-19T19:18:52.169Z,91.30
2019-03-19T19:20:54.984Z,91.20
2019-03-19T19:22:57.758Z,91.20
2019-03-19T19:25:00.592Z,91.00
2019-03-19T19:27:03.426Z,91.00
2019-03-19T19:29:06.368Z,91.20
2019-03-19T19:31:09.167Z,91.60
2019-03-19T19:33:11.963Z,91.40
2019-03-19T19:35:14.761Z,91.50
2019-03-19T19:37:17.804Z,91.80
2019-03-19T19:39:20.613Z,91.80
2019-03-19T19:41:25.531Z,92.00
2019-03-19T19:43:28.311Z,92.10
2019-03-19T19:45:31.333Z,91.50
2019-03-19T19:47:34.197Z,92.10
2019-03-19T19:49:37.099Z,92.00
2019-03-19T19:51:39.910Z,92.10
2019-03-19T19:53:42.728Z,92.10
2019-03-19T19:55:46.091Z,92.10
2019-03-19T19:57:48.931Z,92.50
2019-03-19T19:59:51.790Z,92.30
2019-03-19T20:01:54.538Z,92.40
2019-03-19T20:03:57.356Z,92.20
2019-03-19T20:06:00.221Z,92.30
2019-03-19T20:08:03.172Z,92.60
2019-03-19T20:10:07.494Z,92.50
2019-03-19T20:12:10.722Z,92.60
2019-03-19T20:14:13.488Z,92.60
2019-03-19T20:16:16.358Z,92.70
2019-03-19T20:18:19.200Z,92.80
2019-03-19T20:20:23.525Z,92.70
2019-03-19T20:22:26.316Z,93.00
2019-03-19T20:24:29.201Z,92.60
2019-03-19T20:26:31.973Z,92.70
2019-03-19T20:28:34.775Z,93.00
2019-03-19T20:30:37.736Z,93.30
2019-03-19T20:32:40.729Z,93.10
2019-03-19T20:34:43.533Z,93.40
2019-03-19T20:36:46.300Z,93.30
2019-03-19T20:38:49.129Z,93.30
2019-03-19T20:40:51.957Z,93.20
2019-03-19T20:42:54.701Z,93.50
2019-03-19T20:44:57.490Z,93.50
2019-03-19T20:47:00.375Z,93.30
2019-03-19T20:49:03.251Z,93.30
2019-03-19T20:51:06.030Z,93.40
2019-03-19T20:53:08.887Z,93.30
2019-03-19T20:55:11.766Z,93.40
2019-03-19T20:57:14.548Z,93.70
2019-03-19T20:59:17.398Z,93.50
2019-03-19T21:01:20.354Z,93.80
2019-03-19T21:03:23.302Z,93.90
2019-03-19T21:05:26.242Z,94.10
2019-03-19T21:07:29.030Z,94.50
2019-03-19T21:09:31.827Z,94.20
2019-03-19T21:11:34.637Z,94.30
2019-03-19T21:13:37.512Z,94.40
2019-03-19T21:15:40.316Z,94.30
2019-03-19T21:17:43.160Z,94.50
2019-03-19T21:19:45.972Z,94.50
2019-03-19T21:21:48.812Z,94.80
2019-03-19T21:23:51.584Z,94.70
2019-03-19T21:25:54.520Z,94.80
2019-03-19T21:27:57.342Z,94.70
2019-03-19T21:30:00.272Z,94.80
2019-03-19T21:32:03.073Z,94.90
2019-03-19T21:34:05.867Z,95.00
2019-03-19T21:36:08.892Z,94.90
2019-03-19T21:38:11.715Z,95.00
2019-03-19T21:40:14.803Z,94.70
2019-03-19T21:42:17.623Z,94.80
2019-03-19T21:44:20.410Z,94.20
2019-03-19T21:46:23.191Z,94.40
2019-03-19T21:48:26.091Z,94.60
2019-03-19T21:50:28.896Z,94.80
2019-03-19T21:52:31.722Z,94.70
2019-03-19T21:54:34.566Z,95.00
2019-03-19T21:56:37.365Z,94.50
2019-03-19T21:58:40.184Z,94.70
2019-03-19T22:00:42.967Z,94.70
2019-03-19T22:02:45.919Z,95.20
2019-03-19T22:04:48.912Z,94.90
2019-03-19T22:06:51.717Z,95.10
2019-03-19T22:08:54.494Z,94.90
2019-03-19T22:10:57.395Z,94.70
2019-03-19T22:13:00.251Z,95.00
2019-03-19T22:15:03.448Z,95.00
2019-03-19T22:17:06.347Z,95.50
2019-03-19T22:19:09.131Z,95.30
2019-03-19T22:21:11.931Z,95.30
2019-03-19T22:23:14.711Z,95.40
2019-03-19T22:25:17.569Z,95.10
2019-03-19T22:27:20.399Z,95.20
2019-03-19T22:29:23.297Z,95.60
2019-03-19T22:31:26.441Z,95.10
2019-03-19T22:33:29.228Z,95.10
2019-03-19T22:35:32.105Z,95.30
2019-03-19T22:37:35.001Z,95.60
2019-03-19T22:39:37.825Z,95.60
2019-03-19T22:41:40.648Z,95.90
2019-03-19T22:43:43.532Z,95.90
2019-03-19T22:45:46.308Z,95.90
2019-03-19T22:47:49.137Z,95.70
2019-03-19T22:49:52.062Z,95.80
2019-03-19T22:51:54.880Z,95.60
2019-03-19T22:53:57.710Z,95.80
2019-03-19T22:56:00.564Z,95.70
2019-03-19T22:58:03.374Z,95.90
2019-03-19T23:00:07.966Z,96.10
2019-03-19T23:02:10.909Z,95.90
2019-03-19T23:04:13.772Z,96.20
2019-03-19T23:06:16.560Z,95.90
2019-03-19T23:08:19.378Z,95.90
2019-03-19T23:10:22.271Z,95.90
2019-03-19T23:12:25.131Z,95.60
2019-03-19T23:14:27.950Z,95.60
2019-03-19T23:16:30.728Z,95.20
2019-03-19T23:18:33.607Z,94.90
2019-03-19T23:20:36.415Z,94.70
2019-03-19T23:22:39.375Z,95.00
2019-03-19T23:24:42.404Z,94.40
2019-03-19T23:26:45.181Z,94.30
2019-03-19T23:28:48.064Z,94.60
2019-03-19T23:30:50.895Z,94.70
2019-03-19T23:32:53.970Z,95.00
2019-03-19T23:34:56.758Z,95.00
2019-03-19T23:36:59.579Z,95.20
2019-03-19T23:39:02.452Z,95.20
2019-03-19T23:41:05.235Z,95.50
2019-03-19T23:43:08.054Z,95.20
2019-03-19T23:45:11.464Z,95.40
2019-03-19T23:47:14.289Z,95.40
2019-03-19T23:49:17.096Z,95.50
2019-03-19T23:51:19.980Z,95.40
2019-03-19T23:53:22.778Z,95.60
2019-03-19T23:55:25.531Z,95.70
2019-03-19T23:57:28.339Z,95.90
2019-03-19T23:59:31.122Z,95.40
